Main page
METAR-TAF:

METAR-TAF

Airports :

Khon Kaen Airport

Khon Kaen, Thailand

latitude: 16-26N, longitude: 102-50E, elevation: 165 m

Current weather observation

The report was made 1 hour and 11 minutes ago, at 07:00 UTC
Wind 4 kt from variable directions
Temperature 31°C
Humidity 43%
Pressure 1011 hPa
Visibility 10 km or more
Few clouds at a height of 3000 ft
Broken clouds at a height of 10000 ft

METAR: VTUK 030700Z VRB04KT 9999 FEW030 BKN100 31/17 Q1011 NOSIG

Time: 15:11 (08:11 UTC)

Forecast

The report was made 3 hours and 11 minutes ago, at 05:00 UTC
Forecast valid from 03 at 06 UTC to 04 at 06 UTC
Wind 5 kt from the East/Northeast
Visibility: 8000 m
Few clouds at a height of 3000 ft

TAF: VTUK 030500Z 0306/0406 07005KT 8000 FEW030

Weather observations and forecasts of more than 4000 airports (METAR and TAF reports).

The available stations are represented by yellow and red dots on the map.

Hover mouse over dot to see the name of the station.

Then click to see weather observations and forecasts.

To change the map : click on the green buttons with a black cross to zoom in, on the green button with a dash to zoom out, or on the green arrows for adjacent maps.


METAR-TAF: